createdAt,value
2022-09-28T00:02:23.400Z,89.64
2022-09-28T00:17:23.362Z,89.44
2022-09-28T00:32:23.485Z,87.28
2022-09-28T00:47:23.636Z,86.46
2022-09-28T01:02:23.803Z,86.46
2022-09-28T01:17:23.798Z,84.81
2022-09-28T01:32:23.962Z,83.17
2022-09-28T01:47:24.032Z,81.73
2022-09-28T02:02:24.161Z,81.59
2022-09-28T02:17:24.238Z,81.48
2022-09-28T02:32:24.355Z,81.07
2022-09-28T02:47:24.481Z,81.48
2022-09-28T03:02:24.618Z,81.11
2022-09-28T03:17:24.690Z,80.91
2022-09-28T03:32:24.814Z,80.70
2022-09-28T03:47:24.882Z,81.73
2022-09-28T04:02:25.116Z,82.39
2022-09-28T04:17:25.640Z,81.70
2022-09-28T04:32:25.801Z,80.47
2022-09-28T04:47:25.837Z,79.64
2022-09-28T05:02:25.985Z,79.13
2022-09-28T05:17:26.079Z,79.88
2022-09-28T05:32:26.157Z,78.92
2022-09-28T05:47:26.243Z,78.41
2022-09-28T06:02:26.366Z,78.30
2022-09-28T06:17:26.439Z,77.65
2022-09-28T06:32:26.581Z,77.82
2022-09-28T06:47:26.694Z,79.49
2022-09-28T07:02:26.821Z,87.08
2022-09-28T07:17:27.067Z,92.02
2022-09-28T07:32:27.079Z,99.99
2022-09-28T07:47:32.291Z,99.99
2022-09-28T08:02:32.366Z,99.99
2022-09-28T08:17:32.430Z,99.99
2022-09-28T08:32:32.554Z,99.99
2022-09-28T08:47:32.591Z,99.99
2022-09-28T09:02:32.768Z,98.24
2022-09-28T09:17:32.792Z,92.41
2022-09-28T09:32:32.912Z,93.43
2022-09-28T09:47:32.975Z,93.63
2022-09-28T10:02:33.186Z,95.45
2022-09-28T10:17:33.194Z,91.93
2022-09-28T10:32:33.301Z,92.60
2022-09-28T10:47:33.373Z,87.67
2022-09-28T11:02:36.024Z,83.75
2022-09-28T11:17:36.575Z,79.30
2022-09-28T11:32:36.696Z,77.32
2022-09-28T11:47:36.785Z,81.91
2022-09-28T12:02:37.218Z,77.99
2022-09-28T12:17:37.038Z,80.24
2022-09-28T12:32:37.041Z,78.55
2022-09-28T12:47:37.253Z,77.62
2022-09-28T13:02:37.314Z,73.25
2022-09-28T13:17:37.386Z,69.98
2022-09-28T13:32:37.535Z,71.26
2022-09-28T13:47:37.572Z,74.13
2022-09-28T14:02:37.720Z,73.80
2022-09-28T14:17:37.747Z,70.46
2022-09-28T14:32:37.873Z,69.35
2022-09-28T14:47:37.976Z,67.19
2022-09-28T15:02:38.051Z,73.08
2022-09-28T15:17:40.071Z,76.50
2022-09-28T15:32:40.241Z,84.78
2022-09-28T15:47:40.318Z,94.17
2022-09-28T16:02:40.550Z,99.99
2022-09-28T16:17:40.536Z,99.99
2022-09-28T16:32:40.687Z,99.99
2022-09-28T16:47:40.763Z,99.99
2022-09-28T17:02:46.601Z,99.99
2022-09-28T17:17:45.965Z,99.99
2022-09-28T17:32:46.025Z,99.99
2022-09-28T17:47:46.201Z,99.02
2022-09-28T18:02:46.323Z,99.42
2022-09-28T18:17:46.360Z,99.62
2022-09-28T18:32:46.463Z,98.22
2022-09-28T18:47:46.706Z,97.39
2022-09-28T19:02:47.818Z,93.48
2022-09-28T19:17:48.040Z,86.79
2022-09-28T19:32:48.257Z,84.79
2022-09-28T19:47:48.300Z,84.48
2022-09-28T20:02:48.456Z,83.72
2022-09-28T20:17:49.051Z,84.71
2022-09-28T20:32:49.748Z,86.40
2022-09-28T20:47:50.210Z,86.54
2022-09-28T21:02:50.358Z,81.15
2022-09-28T21:17:50.442Z,82.34
2022-09-28T21:32:50.539Z,80.77
2022-09-28T21:47:50.630Z,80.91
2022-09-28T22:02:50.867Z,81.28
2022-09-28T22:17:50.835Z,81.07
2022-09-28T22:32:50.943Z,82.04
2022-09-28T22:47:51.069Z,83.06
2022-09-28T23:02:51.201Z,82.76
2022-09-28T23:17:51.292Z,82.31
2022-09-28T23:32:51.412Z,80.77
2022-09-28T23:47:51.555Z,81.73
